Time;durP1;ratioP1;P1;durP2;ratioP2;P2;SDS_P1;SDS_P2;PMS_P1;PMS_P2;Temp;Humidity;BMP_temperature;BMP_pressure;BME280_temperature;BME280_humidity;BME280_pressure;Samples;Min_cycle;Max_cycle;Signal;HPM_P1;HPM_P2
2022/07/31 00:00:49;;;;;;;4.53;3.17;;;;;;;20.01;100.00;99255.34;5028914;28;20224;-78
2022/07/31 00:03:19;;;;;;;5.63;3.00;;;;;;;19.94;100.00;99250.75;5027097;28;20236;-78
2022/07/31 00:05:47;;;;;;;3.57;3.00;;;;;;;20.01;100.00;99254.50;5028350;28;20202;-79
2022/07/31 00:08:15;;;;;;;5.63;3.27;;;;;;;19.94;100.00;99253.44;5032120;28;20197;-78
2022/07/31 00:10:45;;;;;;;4.30;2.92;;;;;;;20.08;100.00;99252.06;5029735;28;20198;-79
2022/07/31 00:13:13;;;;;;;3.63;3.03;;;;;;;20.12;100.00;99253.41;5031995;28;20212;-78
2022/07/31 00:15:42;;;;;;;5.00;3.00;;;;;;;20.13;100.00;99249.72;5036345;28;20197;-78
2022/07/31 00:18:10;;;;;;;3.33;2.53;;;;;;;20.08;100.00;99252.91;5030730;28;20296;-78
2022/07/31 00:20:40;;;;;;;5.77;2.67;;;;;;;20.09;100.00;99249.19;5027173;28;20217;-78
2022/07/31 00:23:09;;;;;;;4.90;3.13;;;;;;;20.16;100.00;99255.63;5030942;28;20703;-78
2022/07/31 00:25:38;;;;;;;3.50;2.83;;;;;;;20.05;100.00;99255.88;5033157;28;20260;-78
2022/07/31 00:28:07;;;;;;;4.97;3.03;;;;;;;19.99;100.00;99260.06;5032574;28;20201;-79
2022/07/31 00:30:35;;;;;;;5.67;3.13;;;;;;;20.09;100.00;99249.19;5036156;28;20197;-78
2022/07/31 00:33:04;;;;;;;4.90;3.43;;;;;;;20.05;100.00;99247.81;5032207;28;20303;-79
2022/07/31 00:35:32;;;;;;;3.50;3.20;;;;;;;19.97;100.00;99243.19;5029912;28;20194;-79
2022/07/31 00:38:02;;;;;;;5.57;3.83;;;;;;;19.91;100.00;99243.00;5032926;28;20676;-78
2022/07/31 00:40:50;;;;;;;6.43;3.83;;;;;;;19.88;100.00;99237.91;5035698;28;20200;-79
2022/07/31 00:43:18;;;;;;;5.30;3.70;;;;;;;19.84;100.00;99233.88;5029067;28;20197;-78
2022/07/31 00:45:48;;;;;;;9.93;3.27;;;;;;;19.97;100.00;99229.75;5031220;28;20661;-79
2022/07/31 00:48:26;;;;;;;4.87;3.33;;;;;;;20.09;100.00;99229.53;5031596;28;20205;-78
2022/07/31 00:50:56;;;;;;;4.60;3.43;;;;;;;20.03;100.00;99225.63;5033867;28;20193;-79
2022/07/31 00:53:26;;;;;;;6.20;3.70;;;;;;;20.04;100.00;99226.47;5035353;28;20237;-79
2022/07/31 00:55:56;;;;;;;5.63;3.50;;;;;;;20.09;100.00;99221.47;5035480;28;20197;-78
2022/07/31 00:58:25;;;;;;;4.00;3.60;;;;;;;20.01;100.00;99220.41;5025201;28;20297;-78
2022/07/31 01:00:53;;;;;;;4.00;3.60;;;;;;;20.04;100.00;99227.28;5035412;28;20193;-78
2022/07/31 01:03:22;;;;;;;9.32;8.05;;;;;;;19.83;100.00;99224.97;5028036;28;20197;-79
2022/07/31 01:05:50;;;;;;;5.93;4.83;;;;;;;19.92;100.00;99223.19;5025368;28;20197;-78
2022/07/31 01:08:18;;;;;;;5.90;4.20;;;;;;;19.89;100.00;99228.88;5027980;28;20201;-78
2022/07/31 01:10:56;;;;;;;7.07;3.77;;;;;;;19.67;100.00;99227.50;5035280;28;20221;-78
2022/07/31 01:13:32;;;;;;;5.30;3.70;;;;;;;19.56;100.00;99217.81;5030098;28;20197;-78
2022/07/31 01:16:03;;;;;;;5.20;3.97;;;;;;;19.47;100.00;99218.72;5032077;28;20193;-78
2022/07/31 01:18:34;;;;;;;4.97;3.73;;;;;;;19.48;100.00;99216.88;5028651;28;20233;-78
2022/07/31 01:21:05;;;;;;;6.00;4.30;;;;;;;19.45;100.00;99216.19;5029925;28;20198;-78
2022/07/31 01:23:58;;;;;;;4.07;3.67;;;;;;;19.43;100.00;99217.34;5035102;28;20221;-79
2022/07/31 01:26:38;;;;;;;5.37;3.93;;;;;;;19.50;100.00;99217.59;5035237;28;20276;-78
2022/07/31 01:29:15;;;;;;;4.13;3.73;;;;;;;19.53;100.00;99220.81;5030730;28;20197;-78
2022/07/31 01:31:48;;;;;;;5.50;4.00;;;;;;;19.57;100.00;99215.97;5026790;28;20225;-78
2022/07/31 01:34:24;;;;;;;7.17;4.20;;;;;;;19.53;100.00;99214.59;5034801;28;20285;-79
2022/07/31 01:36:59;;;;;;;4.63;3.60;;;;;;;19.79;100.00;99210.16;5031970;28;20208;-78
2022/07/31 01:39:32;;;;;;;4.67;3.40;;;;;;;19.63;100.00;99213.53;5028161;28;20208;-78
2022/07/31 01:42:04;;;;;;;6.23;3.80;;;;;;;19.53;100.00;99214.59;5028023;28;20272;-78
2022/07/31 01:44:41;;;;;;;5.03;3.60;;;;;;;19.47;100.00;99217.88;5030515;28;20644;-78
2022/07/31 01:47:13;;;;;;;7.33;3.63;;;;;;;19.36;100.00;99214.41;5031649;28;20197;-79
2022/07/31 01:49:43;;;;;;;3.53;3.23;;;;;;;19.21;100.00;99213.28;5030349;28;20209;-79
2022/07/31 01:52:14;;;;;;;4.67;3.43;;;;;;;19.23;100.00;99211.28;5032189;28;20201;-79
2022/07/31 01:54:43;;;;;;;3.33;3.03;;;;;;;19.26;100.00;99202.91;5034746;28;20224;-79
2022/07/31 01:57:13;;;;;;;4.37;3.33;;;;;;;19.28;100.00;99208.97;5028032;28;20248;-79
2022/07/31 01:59:50;;;;;;;4.60;3.07;;;;;;;19.08;100.00;99205.56;5029499;28;20201;-79
2022/07/31 02:02:22;;;;;;;4.30;3.37;;;;;;;19.05;100.00;99207.72;5031979;28;20197;-79
2022/07/31 02:04:51;;;;;;;7.43;4.40;;;;;;;18.52;100.00;99209.19;5029073;28;20201;-79
2022/07/31 02:07:21;;;;;;;4.40;4.00;;;;;;;18.59;100.00;99202.25;5031503;28;20661;-79
2022/07/31 02:09:52;;;;;;;8.53;3.87;;;;;;;18.56;100.00;99199.03;5031780;28;20345;-78
2022/07/31 02:12:27;;;;;;;6.73;3.63;;;;;;;18.58;100.00;99197.03;5031308;28;20189;-78
2022/07/31 02:15:02;;;;;;;4.93;3.90;;;;;;;18.55;100.00;99197.34;5030285;28;20220;-79
2022/07/31 02:17:31;;;;;;;5.13;3.70;;;;;;;18.41;100.00;99195.97;5034059;28;20236;-79
2022/07/31 02:20:02;;;;;;;6.87;4.17;;;;;;;18.29;100.00;99194.47;5031189;28;20198;-79
2022/07/31 02:22:30;;;;;;;4.10;3.60;;;;;;;18.36;100.00;99192.91;5033829;28;20198;-79
2022/07/31 02:24:58;;;;;;;7.37;4.20;;;;;;;18.21;100.00;99192.53;5028422;28;20202;-79
2022/07/31 02:27:28;;;;;;;5.83;3.80;;;;;;;18.28;100.00;99195.47;5032722;28;20221;-79
2022/07/31 02:30:18;;;;;;;4.90;3.53;;;;;;;18.33;100.00;99192.34;5033902;28;20194;-79
2022/07/31 02:32:48;;;;;;;6.77;3.77;;;;;;;18.16;100.00;99199.31;5029730;28;20316;-79
2022/07/31 02:35:18;;;;;;;5.40;3.30;;;;;;;17.99;100.00;99204.44;5028249;28;20649;-79
2022/07/31 02:37:50;;;;;;;3.50;3.20;;;;;;;18.01;100.00;99204.28;5026833;28;20222;-79
2022/07/31 02:40:19;;;;;;;3.33;3.00;;;;;;;18.21;100.00;99205.09;5030593;28;20253;-79
2022/07/31 02:42:49;;;;;;;4.57;3.30;;;;;;;18.28;100.00;99204.38;5032208;28;20205;-79
2022/07/31 02:45:21;;;;;;;5.30;3.83;;;;;;;18.17;100.00;99201.84;5029390;28;20282;-79
2022/07/31 02:47:49;;;;;;;3.73;3.23;;;;;;;18.24;100.00;99202.13;5015639;28;20360;-79
2022/07/31 02:50:18;;;;;;;6.73;3.50;;;;;;;18.14;100.00;99204.81;5024411;28;20198;-79
2022/07/31 02:52:47;;;;;;;5.00;3.17;;;;;;;18.14;100.00;99202.13;5033373;28;20204;-79
2022/07/31 02:55:17;;;;;;;3.37;3.07;;;;;;;18.16;100.00;99199.31;5026689;28;20224;-80
2022/07/31 02:57:47;;;;;;;4.93;3.40;;;;;;;18.07;100.00;99201.03;5029311;28;20249;-79
2022/07/31 03:00:22;;;;;;;5.53;3.10;;;;;;;18.02;100.00;99201.47;5028372;28;20637;-79
2022/07/31 03:02:51;;;;;;;5.13;3.63;;;;;;;18.06;100.00;99202.03;5031269;28;20192;-79
2022/07/31 03:05:19;;;;;;;5.83;3.30;;;;;;;17.98;100.00;99208.09;5030540;28;20202;-78
2022/07/31 03:07:49;;;;;;;5.53;3.57;;;;;;;17.80;100.00;99207.16;5029393;28;20198;-78
2022/07/31 03:10:17;;;;;;;4.83;3.93;;;;;;;17.82;100.00;99207.00;5033246;28;20193;-78
2022/07/31 03:12:50;;;;;;;4.93;4.00;;;;;;;17.59;100.00;99207.28;5031746;28;20277;-78
2022/07/31 03:15:22;;;;;;;4.43;3.87;;;;;;;17.62;100.00;99200.78;5026977;28;20224;-78
2022/07/31 03:17:52;;;;;;;5.53;3.90;;;;;;;17.62;100.00;99195.41;5026461;28;20703;-78
2022/07/31 03:20:21;;;;;;;6.13;4.20;;;;;;;17.54;100.00;99196.13;5033112;28;20272;-78
2022/07/31 03:22:50;;;;;;;3.80;3.37;;;;;;;17.51;100.00;99198.25;5027664;28;20189;-78
2022/07/31 03:25:18;;;;;;;5.20;3.93;;;;;;;17.49;100.00;99195.72;5026543;28;20255;-78
2022/07/31 03:27:49;;;;;;;7.50;4.60;;;;;;;17.52;100.00;99191.91;5025266;28;20663;-78
2022/07/31 03:30:25;;;;;;;8.70;4.83;;;;;;;17.42;100.00;99183.88;5031136;28;20679;-78
2022/07/31 03:32:54;;;;;;;9.53;4.73;;;;;;;17.24;100.00;99193.59;5032925;28;20226;-78
2022/07/31 03:35:23;;;;;;;8.47;4.70;;;;;;;17.13;100.00;99199.91;5030107;28;20440;-78
2022/07/31 03:37:51;;;;;;;8.13;5.37;;;;;;;16.98;100.00;99198.59;5030012;28;20221;-78
2022/07/31 03:40:20;;;;;;;6.30;5.03;;;;;;;16.97;100.00;99204.94;5033460;28;20649;-78
2022/07/31 03:42:50;;;;;;;8.27;5.70;;;;;;;17.01;100.00;99204.56;5031430;28;20384;-78
2022/07/31 03:45:19;;;;;;;6.77;6.03;;;;;;;17.02;100.00;99211.59;5034145;28;20273;-78
2022/07/31 03:47:49;;;;;;;8.03;5.20;;;;;;;17.02;100.00;99210.75;5027358;28;20185;-78
2022/07/31 03:50:18;;;;;;;7.70;5.60;;;;;;;17.01;100.00;99212.56;5033746;28;20212;-79
2022/07/31 03:52:47;;;;;;;6.57;5.57;;;;;;;16.93;100.00;99216.91;5032021;28;20205;-78
2022/07/31 03:55:16;;;;;;;6.10;5.03;;;;;;;16.88;100.00;99222.66;5030976;28;20212;-79
2022/07/31 03:57:45;;;;;;;6.50;5.37;;;;;;;17.03;100.00;99226.66;5031940;28;20204;-78
2022/07/31 04:00:19;;;;;;;6.37;5.00;;;;;;;16.90;100.00;99217.19;5033999;28;20221;-79
2022/07/31 04:02:48;;;;;;;5.90;4.80;;;;;;;17.15;100.00;99214.84;5036443;28;20313;-79
2022/07/31 04:05:17;;;;;;;5.73;5.00;;;;;;;17.17;100.00;99215.53;5036505;28;20198;-78
2022/07/31 04:07:45;;;;;;;6.83;5.00;;;;;;;17.21;100.00;99216.13;5032379;28;20201;-79
2022/07/31 04:10:14;;;;;;;6.93;5.10;;;;;;;17.37;100.00;99220.91;5031202;28;20198;-79
2022/07/31 04:12:42;;;;;;;6.47;5.03;;;;;;;17.29;100.00;99218.97;5030890;28;20194;-79
2022/07/31 04:15:10;;;;;;;5.73;4.50;;;;;;;17.44;100.00;99217.56;5030622;28;20217;-79
2022/07/31 04:17:39;;;;;;;5.10;4.60;;;;;;;17.53;100.00;99217.69;5036161;28;20205;-79
2022/07/31 04:20:11;;;;;;;5.63;4.47;;;;;;;17.54;100.00;99217.56;5033631;28;20245;-79
2022/07/31 04:22:40;;;;;;;5.00;4.50;;;;;;;17.63;100.00;99222.06;5036282;28;20272;-79
2022/07/31 04:25:09;;;;;;;5.97;4.60;;;;;;;17.65;100.00;99220.09;5036177;28;20253;-79
2022/07/31 04:27:37;;;;;;;6.87;4.70;;;;;;;17.66;100.00;99219.13;5034962;28;20282;-79
2022/07/31 04:30:15;;;;;;;6.17;4.53;;;;;;;17.61;100.00;99229.41;5030848;28;20198;-79
2022/07/31 04:32:44;;;;;;;6.60;4.77;;;;;;;17.54;100.00;99222.06;5035942;28;20313;-79
2022/07/31 04:35:13;;;;;;;5.73;4.40;;;;;;;17.61;100.00;99215.16;5032468;28;20197;-79
2022/07/31 04:37:43;;;;;;;4.40;4.00;;;;;;;17.65;100.00;99219.25;5037600;28;20680;-82
2022/07/31 04:40:15;;;;;;;5.73;4.43;;;;;;;17.87;100.00;99220.81;5029185;28;20304;-79
2022/07/31 04:42:44;;;;;;;5.00;4.43;;;;;;;17.92;100.00;99216.72;5034491;28;20190;-79
2022/07/31 04:45:12;;;;;;;8.43;4.50;;;;;;;17.87;100.00;99218.16;5035739;28;20316;-79
2022/07/31 04:47:40;;;;;;;4.90;4.40;;;;;;;17.91;100.00;99220.38;5035683;28;20250;-79
2022/07/31 04:50:09;;;;;;;5.60;4.10;;;;;;;18.02;100.00;99205.97;5032815;28;20198;-79
2022/07/31 04:52:39;;;;;;;6.73;4.50;;;;;;;18.06;100.00;99211.91;5035357;28;20221;-79
2022/07/31 04:55:08;;;;;;;5.13;4.57;;;;;;;18.06;100.00;99211.91;5030196;28;20348;-79
2022/07/31 04:57:36;;;;;;;6.13;4.20;;;;;;;18.19;100.00;99215.13;5031670;28;20197;-79
2022/07/31 05:00:07;;;;;;;6.03;4.63;;;;;;;18.22;100.00;99220.19;5031814;28;20296;-79
2022/07/31 05:02:35;;;;;;;5.03;4.13;;;;;;;18.44;100.00;99219.00;5027387;28;20198;-79
2022/07/31 05:05:04;;;;;;;5.23;4.50;;;;;;;18.41;100.00;99221.97;5035270;28;20214;-79
2022/07/31 05:07:33;;;;;;;6.13;4.93;;;;;;;18.36;100.00;99225.09;4998571;28;20628;-79
2022/07/31 05:10:03;;;;;;;6.20;4.87;;;;;;;18.15;100.00;99222.63;5032420;28;20285;-79
2022/07/31 05:12:32;;;;;;;6.27;4.90;;;;;;;18.04;100.00;99214.72;5031642;28;20221;-78
2022/07/31 05:15:00;;;;;;;7.20;5.17;;;;;;;18.33;100.00;99221.84;5035490;28;20202;-78
2022/07/31 05:17:28;;;;;;;8.00;5.20;;;;;;;18.27;100.00;99217.91;5035413;28;20281;-78
2022/07/31 05:19:57;;;;;;;6.20;5.60;;;;;;;18.24;100.00;99213.69;5034828;28;20734;-79
2022/07/31 05:22:25;;;;;;;6.53;5.23;;;;;;;18.49;100.00;99214.88;5032248;28;20224;-79
2022/07/31 05:24:53;;;;;;;5.80;5.00;;;;;;;18.55;100.00;99214.28;5035170;28;20210;-79
2022/07/31 05:27:23;;;;;;;5.63;5.10;;;;;;;18.67;100.00;99214.97;5030177;28;20197;-79
2022/07/31 05:29:56;;;;;;;7.10;5.47;;;;;;;18.82;100.00;99215.34;5032162;28;20647;-79
2022/07/31 05:32:24;;;;;;;5.97;4.97;;;;;;;19.02;100.00;99218.75;5034642;28;20240;-79
2022/07/31 05:34:52;;;;;;;6.03;5.30;;;;;;;19.09;100.00;99214.44;5034988;28;20201;-79
2022/07/31 05:37:21;;;;;;;5.63;4.67;;;;;;;18.93;100.00;99212.44;5031160;28;20653;-79
2022/07/31 05:39:49;;;;;;;6.27;5.13;;;;;;;19.02;100.00;99213.41;5034776;28;20228;-79
2022/07/31 05:42:17;;;;;;;5.63;4.70;;;;;;;19.11;100.00;99213.34;5033571;28;20205;-79
2022/07/31 05:44:47;;;;;;;6.03;5.10;;;;;;;19.05;100.00;99213.09;5034691;28;20217;-78
2022/07/31 05:47:16;;;;;;;6.70;5.00;;;;;;;19.17;100.00;99210.03;5034664;28;20280;-79
2022/07/31 05:49:45;;;;;;;5.97;5.03;;;;;;;19.25;100.00;99211.94;5034652;28;20285;-79
2022/07/31 05:52:13;;;;;;;6.30;4.80;;;;;;;19.20;100.00;99210.72;5034576;28;20197;-79
2022/07/31 05:54:41;;;;;;;5.63;4.70;;;;;;;19.29;100.00;99217.84;5034787;28;20197;-79
2022/07/31 05:57:09;;;;;;;8.23;5.13;;;;;;;19.30;100.00;99208.78;5031162;28;20240;-79
2022/07/31 05:59:38;;;;;;;7.13;6.10;;;;;;;19.35;100.00;99218.09;5028647;28;20232;-79
2022/07/31 06:02:07;;;;;;;6.63;5.40;;;;;;;19.54;100.00;99219.78;5028947;28;20202;-79
2022/07/31 06:04:36;;;;;;;6.97;5.63;;;;;;;19.65;100.00;99219.59;5030755;28;20284;-79
2022/07/31 06:07:04;;;;;;;6.13;5.43;;;;;;;19.78;100.00;99216.50;5034192;28;20204;-79
2022/07/31 06:09:33;;;;;;;6.97;5.30;;;;;;;19.71;100.00;99220.81;5034219;28;20194;-79
2022/07/31 06:12:01;;;;;;;6.10;5.50;;;;;;;19.64;100.00;99214.38;5029388;28;20261;-79
2022/07/31 06:14:29;;;;;;;8.20;5.83;;;;;;;19.13;100.00;99226.59;5030035;28;20197;-79
2022/07/31 06:16:58;;;;;;;7.17;6.00;;;;;;;19.67;100.00;99219.44;5030943;28;20200;-79
2022/07/31 06:19:29;;;;;;;7.87;5.83;;;;;;;19.53;100.00;99214.59;5034298;28;20185;-79
2022/07/31 06:21:57;;;;;;;8.57;5.73;;;;;;;19.58;100.00;99223.03;5030975;28;20201;-79
2022/07/31 06:24:25;;;;;;;8.00;5.27;;;;;;;19.78;100.00;99223.72;5033806;28;20229;-79
2022/07/31 06:26:57;;;;;;;6.70;6.00;;;;;;;19.65;100.00;99221.44;5030856;28;20213;-79
2022/07/31 06:29:27;;;;;;;6.00;5.40;;;;;;;19.86;100.00;99219.25;5028955;28;20267;-79
2022/07/31 06:32:09;;;;;;;7.03;5.43;;;;;;;20.11;100.00;99211.38;5028743;28;20229;-79
2022/07/31 06:34:39;;;;;;;7.20;5.50;;;;;;;20.19;100.00;99216.81;5030829;28;20197;-80
2022/07/31 06:37:08;;;;;;;9.13;5.67;;;;;;;20.14;100.00;99219.97;5026957;28;20205;-79
2022/07/31 06:39:36;;;;;;;7.53;5.23;;;;;;;20.22;100.00;99222.72;5033405;28;20208;-79
2022/07/31 06:42:24;;;;;;;7.60;5.47;;;;;;;20.28;100.00;99219.41;5032108;28;20272;-79
2022/07/31 06:44:53;;;;;;;11.67;5.73;;;;;;;20.08;100.00;99227.84;5030966;28;20204;-79
2022/07/31 06:47:23;;;;;;;8.70;5.67;;;;;;;20.34;100.00;99219.75;5033585;28;20255;-79
2022/07/31 06:49:54;;;;;;;6.37;5.70;;;;;;;20.41;100.00;99224.34;5030718;28;20197;-79
2022/07/31 06:52:23;;;;;;;6.80;5.50;;;;;;;20.40;100.00;99230.75;5030544;28;20208;-79
2022/07/31 06:54:51;;;;;;;8.27;5.30;;;;;;;20.50;100.00;99217.22;5029288;28;20347;-79
2022/07/31 06:57:19;;;;;;;6.00;5.40;;;;;;;20.46;100.00;99222.06;5029157;28;20201;-79
2022/07/31 06:59:47;;;;;;;5.83;5.23;;;;;;;20.38;100.00;99215.78;5033181;28;20253;-79
2022/07/31 07:02:15;;;;;;;6.37;4.97;;;;;;;20.57;100.00;99210.19;5030259;28;20186;-79
2022/07/31 07:04:44;;;;;;;5.50;5.00;;;;;;;20.77;100.00;99217.00;5033162;28;20194;-79
2022/07/31 07:07:35;;;;;;;9.43;5.23;;;;;;;20.93;100.00;99212.69;5033279;28;20201;-79
2022/07/31 07:10:05;;;;;;;6.87;5.70;;;;;;;20.80;100.00;99213.16;5033302;28;20239;-79
2022/07/31 07:12:33;;;;;;;7.97;4.80;;;;;;;20.64;100.00;99207.69;5027848;28;20201;-79
2022/07/31 07:15:01;;;;;;;6.27;5.23;;;;;;;20.81;100.00;99209.44;5030280;28;20342;-79
2022/07/31 07:17:30;;;;;;;7.93;5.33;;;;;;;20.71;100.00;99206.88;5029918;28;20205;-79
2022/07/31 07:19:58;;;;;;;5.40;4.80;;;;;;;20.65;100.00;99212.06;5026387;28;20213;-79
2022/07/31 07:22:26;;;;;;;7.00;5.37;;;;;;;20.85;100.00;99205.44;5027536;28;20216;-79
2022/07/31 07:25:00;;;;;;;6.30;4.73;;;;;;;20.84;100.00;99203.72;4997951;28;20216;-79
2022/07/31 07:27:29;;;;;;;7.83;4.93;;;;;;;21.01;100.00;99199.25;5031597;28;20280;-79
2022/07/31 07:29:57;;;;;;;5.73;4.27;;;;;;;21.19;100.00;99204.50;5027466;28;20205;-79
2022/07/31 07:32:25;;;;;;;7.20;4.90;;;;;;;21.08;100.00;99201.13;5032805;28;20308;-79
2022/07/31 07:34:53;;;;;;;4.63;4.23;;;;;;;21.43;100.00;99194.66;5032763;28;20201;-79
2022/07/31 07:37:27;;;;;;;5.27;4.03;;;;;;;21.42;100.00;99186.72;5032685;28;20251;-79
2022/07/31 07:39:56;;;;;;;5.83;4.57;;;;;;;21.51;100.00;99191.13;5028541;28;20217;-79
2022/07/31 07:42:32;;;;;;;4.87;4.17;;;;;;;21.59;100.00;99195.69;5026956;28;20204;-79
2022/07/31 07:45:00;;;;;;;7.18;4.30;;;;;;;21.78;100.00;99189.94;5032576;28;20205;-79
2022/07/31 07:47:34;;;;;;;7.17;4.27;;;;;;;21.89;100.00;99188.75;5026563;28;20298;-79
2022/07/31 07:50:22;;;;;;;6.83;4.23;;;;;;;22.07;100.00;99185.91;5032780;28;20198;-79
2022/07/31 07:52:56;;;;;;;5.57;4.20;;;;;;;22.11;100.00;99185.41;5030483;28;20228;-79
2022/07/31 07:55:25;;;;;;;6.25;4.25;;;;;;;22.03;100.00;99182.69;5026667;28;20209;-79
2022/07/31 07:57:54;;;;;;;5.53;4.07;;;;;;;21.64;100.00;99185.25;5031272;28;20198;-79
2022/07/31 08:00:23;;;;;;;6.47;4.17;;;;;;;21.51;100.00;99182.19;5032625;28;20225;-79
2022/07/31 08:02:53;;;;;;;5.23;4.13;;;;;;;21.82;100.00;99182.38;5029020;28;20197;-78
2022/07/31 08:05:41;;;;;;;4.57;4.18;;;;;;;21.96;100.00;99169.03;5030194;28;20242;-79
2022/07/31 08:08:10;;;;;;;5.40;3.90;;;;;;;21.85;100.00;99177.47;5031315;28;20205;-78
2022/07/31 08:10:39;;;;;;;4.40;4.00;;;;;;;22.08;100.00;99172.25;5031898;28;20189;-79
2022/07/31 08:13:10;;;;;;;4.67;3.97;;;;;;;22.33;100.00;99170.34;5027224;28;20198;-79
2022/07/31 08:15:38;;;;;;;6.57;4.00;;;;;;;22.46;100.00;99170.63;5027571;28;20204;-79
2022/07/31 08:18:06;;;;;;;5.28;4.00;;;;;;;22.53;100.00;99171.63;5028271;28;20186;-79
2022/07/31 08:20:37;;;;;;;6.13;4.20;;;;;;;22.75;100.00;99174.56;5025775;28;20277;-79
2022/07/31 08:23:05;;;;;;;5.75;4.03;;;;;;;22.76;100.00;99177.09;5026225;28;20198;-79
2022/07/31 08:25:33;;;;;;;5.10;3.80;;;;;;;22.65;100.00;99171.25;5026042;28;20213;-79
2022/07/31 08:28:01;;;;;;;4.78;3.83;;;;;;;22.42;100.00;99173.88;5029195;28;20201;-79
2022/07/31 08:30:34;;;;;;;6.63;3.50;;;;;;;22.51;100.00;99168.28;5031831;28;20205;-79
2022/07/31 08:33:02;;;;;;;6.38;3.47;;;;;;;22.46;100.00;99161.69;5027341;28;20230;-79
2022/07/31 08:35:31;;;;;;;4.25;3.67;;;;;;;22.46;100.00;99165.25;5035087;28;20198;-79
2022/07/31 08:37:59;;;;;;;4.67;3.00;;;;;;;22.69;100.00;99167.19;5027460;28;20203;-79
2022/07/31 08:40:31;;;;;;;4.73;3.53;;;;;;;22.77;100.00;99167.13;5031988;28;20194;-79
2022/07/31 08:43:10;;;;;;;4.50;3.53;;;;;;;22.80;100.00;99172.19;5030801;28;20228;-79
2022/07/31 08:46:02;;;;;;;7.43;3.47;;;;;;;22.64;100.00;99164.16;5035054;28;20244;-79
2022/07/31 08:48:33;;;;;;;5.18;3.60;;;;;;;22.83;100.00;99169.13;5030717;28;20201;-79
2022/07/31 08:51:03;;;;;;;4.57;3.63;;;;;;;22.92;100.00;99167.28;5034863;28;20194;-79
2022/07/31 08:53:36;;;;;;;4.28;3.33;;;;;;;22.97;100.00;99167.56;5035203;28;20190;-79
2022/07/31 08:56:05;;;;;;;11.00;3.63;;;;;;;22.66;100.00;99159.44;5028494;28;20236;-79
2022/07/31 08:58:34;;;;;;;3.88;3.35;;;;;;;22.93;100.00;99160.84;5026039;28;20284;-79
2022/07/31 09:01:11;;;;;;;5.00;3.20;;;;;;;23.11;100.00;99164.97;5030260;28;20249;-79
2022/07/31 09:03:39;;;;;;;5.10;3.45;;;;;;;23.17;100.00;99159.88;5032888;28;20369;-79
2022/07/31 09:06:10;;;;;;;4.68;3.28;;;;;;;23.20;100.00;99157.66;5030912;28;20198;-80
2022/07/31 09:08:40;;;;;;;4.75;3.22;;;;;;;23.17;100.00;99154.47;5028477;28;20613;-79
2022/07/31 09:11:11;;;;;;;5.50;3.47;;;;;;;23.24;100.00;99150.84;5032727;28;20232;-80
2022/07/31 09:13:41;;;;;;;3.80;3.30;;;;;;;23.27;100.00;99145.13;5033128;28;20205;-79
2022/07/31 09:16:45;;;;;;;5.38;3.40;;;;;;;23.22;100.00;99139.38;5034481;28;20200;-79
2022/07/31 09:19:14;;;;;;;5.78;3.30;;;;;;;23.47;100.00;99136.53;5034223;28;20197;-79
2022/07/31 09:22:02;;;;;;;4.47;3.45;;;;;;;23.64;100.00;99128.13;5034346;28;20264;-79
2022/07/31 09:24:37;;;;;;;5.68;3.63;;;;;;;23.88;99.53;99129.75;5032183;28;20205;-79
2022/07/31 09:27:10;;;;;;;4.45;3.60;;;;;;;24.26;97.83;99122.41;5030088;28;20201;-79
2022/07/31 09:29:40;;;;;;;6.70;3.45;;;;;;;24.44;97.59;99119.34;5030123;28;20208;-79
2022/07/31 09:32:11;;;;;;;5.82;3.47;;;;;;;24.64;95.34;99110.63;5034487;28;20232;-79
2022/07/31 09:34:40;;;;;;;7.40;3.55;;;;;;;24.82;94.15;99111.06;5027849;28;20206;-78
2022/07/31 09:37:11;;;;;;;3.75;3.05;;;;;;;25.20;92.57;99102.75;5034969;28;20576;-79
2022/07/31 09:39:40;;;;;;;5.30;3.10;;;;;;;24.83;92.78;99112.75;5034099;28;20197;-79
2022/07/31 09:42:20;;;;;;;4.78;3.45;;;;;;;25.05;92.19;99103.63;5032473;28;20224;-79
2022/07/31 09:44:50;;;;;;;5.93;2.90;;;;;;;25.15;88.46;99105.19;5029923;28;20193;-79
2022/07/31 09:47:25;;;;;;;7.40;3.47;;;;;;;25.21;88.00;99102.56;5034557;28;20190;-78
2022/07/31 09:49:57;;;;;;;4.80;3.17;;;;;;;25.31;88.23;99102.22;5034502;28;20204;-79
2022/07/31 09:52:26;;;;;;;3.75;2.85;;;;;;;25.51;87.29;99099.69;5030394;28;20197;-79
2022/07/31 09:55:03;;;;;;;3.35;2.95;;;;;;;25.55;83.30;99098.25;5031414;28;20283;-78
2022/07/31 09:57:53;;;;;;;3.92;2.97;;;;;;;25.49;81.94;99099.91;5032605;28;20208;-78
2022/07/31 10:00:22;;;;;;;3.33;2.90;;;;;;;25.57;79.37;99090.75;5030657;28;20189;-78
2022/07/31 10:02:54;;;;;;;5.38;2.88;;;;;;;25.64;79.50;99099.81;5033949;28;20221;-78
2022/07/31 10:05:27;;;;;;;3.45;2.88;;;;;;;25.67;76.31;99092.13;5034335;28;20198;-79
2022/07/31 10:07:58;;;;;;;5.40;2.80;;;;;;;25.68;77.07;99084.81;5022918;28;20198;-78
2022/07/31 10:10:30;;;;;;;4.15;3.10;;;;;;;25.59;78.78;99086.84;5034130;28;20194;-78
2022/07/31 10:13:01;;;;;;;5.45;3.03;;;;;;;25.60;81.42;99082.25;5030087;28;20205;-78
2022/07/31 10:15:33;;;;;;;3.92;2.83;;;;;;;25.70;77.64;99088.19;5025645;28;20194;-79
2022/07/31 10:18:04;;;;;;;5.28;3.05;;;;;;;25.72;78.89;99090.72;5033926;28;20202;-79
2022/07/31 10:20:34;;;;;;;5.15;2.88;;;;;;;25.68;77.79;99087.53;5030885;28;20311;-78
2022/07/31 10:23:09;;;;;;;3.95;2.90;;;;;;;25.17;82.44;99100.41;5028450;28;20267;-78
2022/07/31 10:25:45;;;;;;;4.47;2.90;;;;;;;25.27;85.25;99092.78;5031076;28;20201;-79
2022/07/31 10:28:22;;;;;;;4.65;3.10;;;;;;;25.55;81.63;99088.25;5026580;28;20236;-79
2022/07/31 10:30:50;;;;;;;3.42;2.83;;;;;;;25.58;81.59;99085.16;5025930;28;20206;-79
2022/07/31 10:33:20;;;;;;;3.33;2.67;;;;;;;25.74;81.20;99078.63;5030810;28;20204;-79
2022/07/31 10:36:16;;;;;;;4.75;2.95;;;;;;;25.71;80.27;99072.75;5033515;28;20205;-79
2022/07/31 10:38:51;;;;;;;4.78;2.65;;;;;;;25.81;78.92;99071.38;5033863;28;20205;-79
2022/07/31 10:41:32;;;;;;;5.18;2.70;;;;;;;26.02;77.21;99066.91;5026688;28;20288;-79
2022/07/31 10:44:05;;;;;;;7.10;2.60;;;;;;;25.63;76.31;99079.13;5032271;28;20197;-79
2022/07/31 10:46:34;;;;;;;3.38;2.58;;;;;;;25.34;76.25;99072.00;5033380;28;20273;-79
2022/07/31 10:49:05;;;;;;;5.90;2.65;;;;;;;25.53;74.21;99068.63;5030320;28;20281;-79
2022/07/31 10:51:46;;;;;;;3.25;2.63;;;;;;;25.64;73.29;99054.50;5024823;28;20208;-79
2022/07/31 10:54:14;;;;;;;3.15;2.40;;;;;;;25.73;73.60;99054.41;5033472;28;20254;-79
2022/07/31 10:56:46;;;;;;;6.15;2.70;;;;;;;25.92;73.06;99050.97;5033336;28;20193;-79
2022/07/31 10:59:14;;;;;;;5.30;2.72;;;;;;;25.84;73.38;99040.28;4963811;28;20188;-79
2022/07/31 11:01:46;;;;;;;3.47;2.63;;;;;;;25.98;72.35;99046.63;4972282;28;20207;-79
2022/07/31 11:04:29;;;;;;;3.13;2.65;;;;;;;25.86;73.04;99043.63;4972239;28;20207;-79
2022/07/31 11:06:57;;;;;;;5.15;2.70;;;;;;;26.41;71.58;99045.41;4972377;28;20238;-78
2022/07/31 11:09:28;;;;;;;3.80;2.65;;;;;;;26.56;68.22;99042.56;4969039;28;20192;-79
2022/07/31 11:11:57;;;;;;;4.15;3.00;;;;;;;25.77;72.94;99033.97;4964651;28;20207;-79
2022/07/31 11:14:32;;;;;;;3.85;3.00;;;;;;;26.22;70.75;99033.38;4968769;28;20651;-79
2022/07/31 11:17:01;;;;;;;3.13;2.40;;;;;;;27.04;66.17;99026.19;4987245;28;20197;-79
2022/07/31 11:19:39;;;;;;;4.30;2.60;;;;;;;27.39;63.60;99024.09;5024491;28;20209;-79
2022/07/31 11:22:13;;;;;;;3.13;2.55;;;;;;;27.43;62.58;99030.81;5027613;28;20189;-78
2022/07/31 11:24:59;;;;;;;3.25;2.33;;;;;;;27.57;61.71;99029.72;5032951;28;20194;-79
2022/07/31 11:27:31;;;;;;;6.03;3.05;;;;;;;27.73;60.51;99038.53;5031812;28;20197;-79
2022/07/31 11:30:06;;;;;;;4.07;2.50;;;;;;;27.73;61.82;99024.94;5024504;28;20201;-79
2022/07/31 11:32:40;;;;;;;4.97;2.60;;;;;;;28.06;60.42;99033.84;5028382;28;20260;-79
2022/07/31 11:35:11;;;;;;;4.65;2.47;;;;;;;27.19;63.69;99032.25;5028545;28;20201;-79
2022/07/31 11:37:39;;;;;;;5.45;2.85;;;;;;;27.40;62.72;99023.03;5029097;28;20210;-79
2022/07/31 11:40:26;;;;;;;3.28;2.33;;;;;;;27.37;61.85;99023.47;5032624;28;20197;-79
2022/07/31 11:42:56;;;;;;;5.22;2.40;;;;;;;26.90;65.46;99027.16;5029063;28;20217;-79
2022/07/31 11:45:48;;;;;;;2.53;2.28;;;;;;;27.11;63.97;99021.56;5032582;28;20944;-78